sensor_id;sensor_type;location;lat;lon;timestamp;P1;durP1;ratioP1;P2;durP2;ratioP2
7813;SDS011;3952;48.364;16.022;2023-07-29T00:02:23;2.57;;;2.47;;
7813;SDS011;3952;48.364;16.022;2023-07-29T00:04:52;2.80;;;2.70;;
7813;SDS011;3952;48.364;16.022;2023-07-29T00:07:20;3.10;;;2.90;;
7813;SDS011;3952;48.364;16.022;2023-07-29T00:09:47;3.00;;;2.80;;
7813;SDS011;3952;48.364;16.022;2023-07-29T00:12:14;2.63;;;2.53;;
7813;SDS011;3952;48.364;16.022;2023-07-29T00:14:41;2.63;;;2.53;;
7813;SDS011;3952;48.364;16.022;2023-07-29T00:17:10;3.17;;;3.00;;
7813;SDS011;3952;48.364;16.022;2023-07-29T00:19:37;2.70;;;2.60;;
7813;SDS011;3952;48.364;16.022;2023-07-29T00:22:04;3.07;;;2.77;;
7813;SDS011;3952;48.364;16.022;2023-07-29T00:24:33;2.80;;;2.70;;
7813;SDS011;3952;48.364;16.022;2023-07-29T00:27:00;2.90;;;2.70;;
7813;SDS011;3952;48.364;16.022;2023-07-29T00:29:27;2.90;;;2.80;;
7813;SDS011;3952;48.364;16.022;2023-07-29T00:31:55;3.33;;;2.57;;
7813;SDS011;3952;48.364;16.022;2023-07-29T00:34:23;3.90;;;2.80;;
7813;SDS011;3952;48.364;16.022;2023-07-29T00:36:50;3.23;;;2.97;;
7813;SDS011;3952;48.364;16.022;2023-07-29T00:39:17;3.13;;;3.00;;
7813;SDS011;3952;48.364;16.022;2023-07-29T00:41:45;2.90;;;2.80;;
7813;SDS011;3952;48.364;16.022;2023-07-29T00:44:12;2.70;;;2.60;;
7813;SDS011;3952;48.364;16.022;2023-07-29T00:46:39;3.33;;;3.07;;
7813;SDS011;3952;48.364;16.022;2023-07-29T00:49:07;3.07;;;2.87;;
7813;SDS011;3952;48.364;16.022;2023-07-29T00:51:36;3.00;;;2.90;;
7813;SDS011;3952;48.364;16.022;2023-07-29T00:54:03;2.83;;;2.70;;
7813;SDS011;3952;48.364;16.022;2023-07-29T00:56:30;3.50;;;3.30;;
7813;SDS011;3952;48.364;16.022;2023-07-29T00:58:57;3.27;;;2.97;;
7813;SDS011;3952;48.364;16.022;2023-07-29T01:01:27;3.30;;;3.10;;
7813;SDS011;3952;48.364;16.022;2023-07-29T01:03:54;3.40;;;3.20;;
7813;SDS011;3952;48.364;16.022;2023-07-29T01:06:23;3.53;;;3.33;;
7813;SDS011;3952;48.364;16.022;2023-07-29T01:08:59;3.67;;;3.47;;
7813;SDS011;3952;48.364;16.022;2023-07-29T01:11:33;3.17;;;2.97;;
7813;SDS011;3952;48.364;16.022;2023-07-29T01:14:10;3.43;;;3.23;;
7813;SDS011;3952;48.364;16.022;2023-07-29T01:16:50;3.93;;;3.67;;
7813;SDS011;3952;48.364;16.022;2023-07-29T01:19:26;4.40;;;4.00;;
7813;SDS011;3952;48.364;16.022;2023-07-29T01:22:14;3.67;;;3.47;;
7813;SDS011;3952;48.364;16.022;2023-07-29T01:24:43;4.40;;;4.10;;
7813;SDS011;3952;48.364;16.022;2023-07-29T01:27:11;4.00;;;3.70;;
7813;SDS011;3952;48.364;16.022;2023-07-29T01:29:38;3.97;;;3.77;;
7813;SDS011;3952;48.364;16.022;2023-07-29T01:32:07;3.90;;;3.60;;
7813;SDS011;3952;48.364;16.022;2023-07-29T01:34:39;4.50;;;4.03;;
7813;SDS011;3952;48.364;16.022;2023-07-29T01:37:13;3.93;;;3.70;;
7813;SDS011;3952;48.364;16.022;2023-07-29T01:39:47;4.33;;;3.93;;
7813;SDS011;3952;48.364;16.022;2023-07-29T01:42:16;4.33;;;4.07;;
7813;SDS011;3952;48.364;16.022;2023-07-29T01:44:44;4.60;;;4.20;;
7813;SDS011;3952;48.364;16.022;2023-07-29T01:47:11;3.77;;;3.57;;
7813;SDS011;3952;48.364;16.022;2023-07-29T01:49:38;4.00;;;3.70;;
7813;SDS011;3952;48.364;16.022;2023-07-29T01:52:05;4.17;;;3.83;;
7813;SDS011;3952;48.364;16.022;2023-07-29T01:54:33;3.80;;;3.60;;
7813;SDS011;3952;48.364;16.022;2023-07-29T01:57:01;4.10;;;3.80;;
7813;SDS011;3952;48.364;16.022;2023-07-29T01:59:28;4.20;;;3.90;;
7813;SDS011;3952;48.364;16.022;2023-07-29T02:01:56;4.53;;;4.27;;
7813;SDS011;3952;48.364;16.022;2023-07-29T02:04:23;3.90;;;3.70;;
7813;SDS011;3952;48.364;16.022;2023-07-29T02:06:50;4.17;;;3.77;;
7813;SDS011;3952;48.364;16.022;2023-07-29T02:09:17;4.30;;;4.00;;
7813;SDS011;3952;48.364;16.022;2023-07-29T02:11:44;3.70;;;3.50;;
7813;SDS011;3952;48.364;16.022;2023-07-29T02:14:13;3.60;;;3.40;;
7813;SDS011;3952;48.364;16.022;2023-07-29T02:16:40;3.70;;;3.50;;
7813;SDS011;3952;48.364;16.022;2023-07-29T02:19:07;4.17;;;3.87;;
7813;SDS011;3952;48.364;16.022;2023-07-29T02:21:34;3.97;;;3.77;;
7813;SDS011;3952;48.364;16.022;2023-07-29T02:24:01;4.00;;;3.80;;
7813;SDS011;3952;48.364;16.022;2023-07-29T02:26:28;3.57;;;3.27;;
7813;SDS011;3952;48.364;16.022;2023-07-29T02:28:56;4.07;;;3.87;;
7813;SDS011;3952;48.364;16.022;2023-07-29T02:31:24;4.27;;;3.97;;
7813;SDS011;3952;48.364;16.022;2023-07-29T02:33:53;3.53;;;3.33;;
7813;SDS011;3952;48.364;16.022;2023-07-29T02:36:20;4.10;;;3.80;;
7813;SDS011;3952;48.364;16.022;2023-07-29T02:38:48;3.97;;;3.77;;
7813;SDS011;3952;48.364;16.022;2023-07-29T02:41:15;4.20;;;3.90;;
7813;SDS011;3952;48.364;16.022;2023-07-29T02:43:42;3.67;;;3.47;;
7813;SDS011;3952;48.364;16.022;2023-07-29T02:46:09;3.50;;;3.30;;
7813;SDS011;3952;48.364;16.022;2023-07-29T02:48:38;3.60;;;3.40;;
7813;SDS011;3952;48.364;16.022;2023-07-29T02:51:05;4.10;;;3.63;;
7813;SDS011;3952;48.364;16.022;2023-07-29T02:53:32;3.63;;;3.20;;
7813;SDS011;3952;48.364;16.022;2023-07-29T02:56:01;3.97;;;3.67;;
7813;SDS011;3952;48.364;16.022;2023-07-29T02:58:29;3.67;;;3.47;;
7813;SDS011;3952;48.364;16.022;2023-07-29T03:01:00;3.20;;;3.10;;
7813;SDS011;3952;48.364;16.022;2023-07-29T03:03:28;4.43;;;3.23;;
7813;SDS011;3952;48.364;16.022;2023-07-29T03:05:58;3.50;;;3.30;;
7813;SDS011;3952;48.364;16.022;2023-07-29T03:08:26;3.73;;;3.43;;
7813;SDS011;3952;48.364;16.022;2023-07-29T03:10:54;4.00;;;3.80;;
7813;SDS011;3952;48.364;16.022;2023-07-29T03:13:21;3.67;;;3.47;;
7813;SDS011;3952;48.364;16.022;2023-07-29T03:15:48;3.60;;;3.40;;
7813;SDS011;3952;48.364;16.022;2023-07-29T03:18:15;3.47;;;3.20;;
7813;SDS011;3952;48.364;16.022;2023-07-29T03:20:43;3.47;;;3.27;;
7813;SDS011;3952;48.364;16.022;2023-07-29T03:23:11;4.17;;;3.77;;
7813;SDS011;3952;48.364;16.022;2023-07-29T03:25:38;4.37;;;3.97;;
7813;SDS011;3952;48.364;16.022;2023-07-29T03:28:05;4.30;;;4.00;;
7813;SDS011;3952;48.364;16.022;2023-07-29T03:30:33;4.07;;;3.77;;
7813;SDS011;3952;48.364;16.022;2023-07-29T03:33:00;3.80;;;3.40;;
7813;SDS011;3952;48.364;16.022;2023-07-29T03:35:27;3.90;;;3.57;;
7813;SDS011;3952;48.364;16.022;2023-07-29T03:37:54;4.10;;;3.70;;
7813;SDS011;3952;48.364;16.022;2023-07-29T03:40:23;4.07;;;3.77;;
7813;SDS011;3952;48.364;16.022;2023-07-29T03:42:50;4.60;;;4.20;;
7813;SDS011;3952;48.364;16.022;2023-07-29T03:45:17;3.83;;;3.53;;
7813;SDS011;3952;48.364;16.022;2023-07-29T03:47:44;4.00;;;3.80;;
7813;SDS011;3952;48.364;16.022;2023-07-29T03:50:11;3.30;;;3.10;;
7813;SDS011;3952;48.364;16.022;2023-07-29T03:52:38;3.40;;;3.20;;
7813;SDS011;3952;48.364;16.022;2023-07-29T03:55:06;3.33;;;3.13;;
7813;SDS011;3952;48.364;16.022;2023-07-29T03:57:35;4.13;;;3.77;;
7813;SDS011;3952;48.364;16.022;2023-07-29T04:00:02;3.80;;;3.60;;
7813;SDS011;3952;48.364;16.022;2023-07-29T04:02:30;4.47;;;3.30;;
7813;SDS011;3952;48.364;16.022;2023-07-29T04:04:57;3.70;;;2.77;;
7813;SDS011;3952;48.364;16.022;2023-07-29T04:07:24;3.00;;;2.80;;
7813;SDS011;3952;48.364;16.022;2023-07-29T04:09:51;3.47;;;3.20;;
7813;SDS011;3952;48.364;16.022;2023-07-29T04:12:18;3.40;;;3.10;;
7813;SDS011;3952;48.364;16.022;2023-07-29T04:14:48;3.30;;;3.10;;
7813;SDS011;3952;48.364;16.022;2023-07-29T04:17:15;3.13;;;2.93;;
7813;SDS011;3952;48.364;16.022;2023-07-29T04:19:42;2.80;;;2.70;;
7813;SDS011;3952;48.364;16.022;2023-07-29T04:22:09;2.87;;;2.67;;
7813;SDS011;3952;48.364;16.022;2023-07-29T04:24:36;3.03;;;2.73;;
7813;SDS011;3952;48.364;16.022;2023-07-29T04:27:04;2.87;;;2.77;;
7813;SDS011;3952;48.364;16.022;2023-07-29T04:29:31;2.60;;;2.50;;
7813;SDS011;3952;48.364;16.022;2023-07-29T04:32:02;2.43;;;2.33;;
7813;SDS011;3952;48.364;16.022;2023-07-29T04:34:29;2.43;;;2.33;;
7813;SDS011;3952;48.364;16.022;2023-07-29T04:36:57;2.50;;;2.40;;
7813;SDS011;3952;48.364;16.022;2023-07-29T04:39:24;2.40;;;2.30;;
7813;SDS011;3952;48.364;16.022;2023-07-29T04:41:51;2.70;;;2.60;;
7813;SDS011;3952;48.364;16.022;2023-07-29T04:44:18;2.50;;;2.40;;
7813;SDS011;3952;48.364;16.022;2023-07-29T04:46:46;2.40;;;2.30;;
7813;SDS011;3952;48.364;16.022;2023-07-29T04:49:14;2.40;;;2.30;;
7813;SDS011;3952;48.364;16.022;2023-07-29T04:51:41;2.30;;;2.20;;
7813;SDS011;3952;48.364;16.022;2023-07-29T04:54:09;2.63;;;2.50;;
7813;SDS011;3952;48.364;16.022;2023-07-29T04:56:36;2.60;;;2.50;;
7813;SDS011;3952;48.364;16.022;2023-07-29T04:59:03;3.27;;;2.03;;
7813;SDS011;3952;48.364;16.022;2023-07-29T05:01:30;2.20;;;2.00;;
7813;SDS011;3952;48.364;16.022;2023-07-29T05:03:57;2.20;;;2.10;;
7813;SDS011;3952;48.364;16.022;2023-07-29T05:06:26;3.97;;;2.40;;
7813;SDS011;3952;48.364;16.022;2023-07-29T05:08:53;2.27;;;2.17;;
7813;SDS011;3952;48.364;16.022;2023-07-29T05:11:20;2.23;;;2.13;;
7813;SDS011;3952;48.364;16.022;2023-07-29T05:13:48;2.07;;;1.97;;
7813;SDS011;3952;48.364;16.022;2023-07-29T05:16:15;2.40;;;2.20;;
7813;SDS011;3952;48.364;16.022;2023-07-29T05:18:42;2.60;;;2.40;;
7813;SDS011;3952;48.364;16.022;2023-07-29T05:21:09;2.10;;;2.00;;
7813;SDS011;3952;48.364;16.022;2023-07-29T05:23:40;2.27;;;2.07;;
7813;SDS011;3952;48.364;16.022;2023-07-29T05:26:07;2.60;;;2.00;;
7813;SDS011;3952;48.364;16.022;2023-07-29T05:28:35;2.23;;;1.80;;
7813;SDS011;3952;48.364;16.022;2023-07-29T05:31:02;2.10;;;2.00;;
7813;SDS011;3952;48.364;16.022;2023-07-29T05:33:30;2.07;;;1.97;;
7813;SDS011;3952;48.364;16.022;2023-07-29T05:35:57;2.07;;;1.97;;
7813;SDS011;3952;48.364;16.022;2023-07-29T05:38:24;2.10;;;2.00;;
7813;SDS011;3952;48.364;16.022;2023-07-29T05:40:53;2.23;;;2.13;;
7813;SDS011;3952;48.364;16.022;2023-07-29T05:43:20;2.43;;;2.03;;
7813;SDS011;3952;48.364;16.022;2023-07-29T05:45:48;2.60;;;2.00;;
7813;SDS011;3952;48.364;16.022;2023-07-29T05:48:15;1.90;;;1.80;;
7813;SDS011;3952;48.364;16.022;2023-07-29T05:50:42;2.10;;;2.00;;
7813;SDS011;3952;48.364;16.022;2023-07-29T05:53:10;2.20;;;2.10;;
7813;SDS011;3952;48.364;16.022;2023-07-29T05:55:37;2.13;;;2.03;;
7813;SDS011;3952;48.364;16.022;2023-07-29T05:58:05;2.20;;;2.10;;
7813;SDS011;3952;48.364;16.022;2023-07-29T06:00:32;1.90;;;1.80;;
7813;SDS011;3952;48.364;16.022;2023-07-29T06:03:00;2.60;;;2.10;;
7813;SDS011;3952;48.364;16.022;2023-07-29T06:05:27;2.23;;;2.13;;
7813;SDS011;3952;48.364;16.022;2023-07-29T06:07:54;1.80;;;1.70;;
7813;SDS011;3952;48.364;16.022;2023-07-29T06:10:21;2.23;;;1.97;;
7813;SDS011;3952;48.364;16.022;2023-07-29T06:12:48;2.73;;;2.50;;
7813;SDS011;3952;48.364;16.022;2023-07-29T06:15:17;2.00;;;1.90;;
7813;SDS011;3952;48.364;16.022;2023-07-29T06:17:47;2.00;;;1.90;;
7813;SDS011;3952;48.364;16.022;2023-07-29T06:20:14;2.07;;;1.97;;
7813;SDS011;3952;48.364;16.022;2023-07-29T06:22:41;2.10;;;2.00;;
7813;SDS011;3952;48.364;16.022;2023-07-29T06:25:08;2.33;;;2.23;;
7813;SDS011;3952;48.364;16.022;2023-07-29T06:27:36;2.50;;;2.23;;
7813;SDS011;3952;48.364;16.022;2023-07-29T06:30:04;2.57;;;2.07;;
7813;SDS011;3952;48.364;16.022;2023-07-29T06:32:33;2.30;;;2.20;;
7813;SDS011;3952;48.364;16.022;2023-07-29T06:35:01;2.20;;;2.00;;
7813;SDS011;3952;48.364;16.022;2023-07-29T06:37:28;1.90;;;1.80;;
7813;SDS011;3952;48.364;16.022;2023-07-29T06:39:55;2.67;;;2.47;;
7813;SDS011;3952;48.364;16.022;2023-07-29T06:42:22;1.90;;;1.80;;
7813;SDS011;3952;48.364;16.022;2023-07-29T06:44:49;2.30;;;2.20;;
7813;SDS011;3952;48.364;16.022;2023-07-29T06:47:16;2.40;;;2.17;;
7813;SDS011;3952;48.364;16.022;2023-07-29T06:49:45;2.05;;;1.95;;
7813;SDS011;3952;48.364;16.022;2023-07-29T06:52:12;2.17;;;2.00;;
7813;SDS011;3952;48.364;16.022;2023-07-29T06:54:40;2.35;;;2.20;;
7813;SDS011;3952;48.364;16.022;2023-07-29T06:57:07;2.03;;;1.92;;
7813;SDS011;3952;48.364;16.022;2023-07-29T06:59:34;2.45;;;2.25;;
7813;SDS011;3952;48.364;16.022;2023-07-29T07:02:01;1.90;;;1.80;;
7813;SDS011;3952;48.364;16.022;2023-07-29T07:04:28;2.15;;;2.00;;
7813;SDS011;3952;48.364;16.022;2023-07-29T07:06:57;2.30;;;2.03;;
7813;SDS011;3952;48.364;16.022;2023-07-29T07:09:24;1.88;;;1.77;;
7813;SDS011;3952;48.364;16.022;2023-07-29T07:11:52;1.77;;;1.67;;
7813;SDS011;3952;48.364;16.022;2023-07-29T07:14:19;1.80;;;1.70;;
7813;SDS011;3952;48.364;16.022;2023-07-29T07:16:46;1.90;;;1.80;;
7813;SDS011;3952;48.364;16.022;2023-07-29T07:19:13;1.60;;;1.52;;
7813;SDS011;3952;48.364;16.022;2023-07-29T07:21:40;2.03;;;1.92;;
7813;SDS011;3952;48.364;16.022;2023-07-29T07:24:09;1.70;;;1.60;;
7813;SDS011;3952;48.364;16.022;2023-07-29T07:26:36;1.88;;;1.80;;
7813;SDS011;3952;48.364;16.022;2023-07-29T07:29:03;1.70;;;1.60;;
7813;SDS011;3952;48.364;16.022;2023-07-29T07:31:32;1.60;;;1.50;;
7813;SDS011;3952;48.364;16.022;2023-07-29T07:34:00;1.52;;;1.42;;
7813;SDS011;3952;48.364;16.022;2023-07-29T07:36:29;1.40;;;1.40;;
7813;SDS011;3952;48.364;16.022;2023-07-29T07:38:56;1.48;;;1.38;;
7813;SDS011;3952;48.364;16.022;2023-07-29T07:41:25;1.35;;;1.35;;
7813;SDS011;3952;48.364;16.022;2023-07-29T07:43:52;1.50;;;1.50;;
7813;SDS011;3952;48.364;16.022;2023-07-29T07:46:19;4.32;;;1.90;;
7813;SDS011;3952;48.364;16.022;2023-07-29T07:48:46;3.83;;;1.80;;
7813;SDS011;3952;48.364;16.022;2023-07-29T07:51:13;2.03;;;1.92;;
7813;SDS011;3952;48.364;16.022;2023-07-29T07:53:40;2.10;;;1.33;;
7813;SDS011;3952;48.364;16.022;2023-07-29T07:56:08;1.20;;;1.17;;
7813;SDS011;3952;48.364;16.022;2023-07-29T07:58:36;1.45;;;1.35;;
7813;SDS011;3952;48.364;16.022;2023-07-29T08:01:04;1.30;;;1.30;;
7813;SDS011;3952;48.364;16.022;2023-07-29T08:03:32;1.10;;;1.00;;
7813;SDS011;3952;48.364;16.022;2023-07-29T08:05:59;1.20;;;1.20;;
7813;SDS011;3952;48.364;16.022;2023-07-29T08:08:26;1.60;;;1.52;;
7813;SDS011;3952;48.364;16.022;2023-07-29T08:10:54;1.33;;;1.33;;
7813;SDS011;3952;48.364;16.022;2023-07-29T08:13:23;1.27;;;1.27;;
7813;SDS011;3952;48.364;16.022;2023-07-29T08:15:52;1.30;;;1.30;;
7813;SDS011;3952;48.364;16.022;2023-07-29T08:18:19;1.15;;;1.05;;
7813;SDS011;3952;48.364;16.022;2023-07-29T08:20:53;1.50;;;1.40;;
7813;SDS011;3952;48.364;16.022;2023-07-29T08:23:23;1.15;;;1.10;;
7813;SDS011;3952;48.364;16.022;2023-07-29T08:25:53;3.00;;;1.45;;
7813;SDS011;3952;48.364;16.022;2023-07-29T08:28:26;1.60;;;1.50;;
7813;SDS011;3952;48.364;16.022;2023-07-29T08:30:55;1.48;;;1.38;;
7813;SDS011;3952;48.364;16.022;2023-07-29T08:33:22;1.45;;;1.35;;
7813;SDS011;3952;48.364;16.022;2023-07-29T08:35:50;1.15;;;1.15;;
7813;SDS011;3952;48.364;16.022;2023-07-29T08:38:17;1.30;;;1.30;;
7813;SDS011;3952;48.364;16.022;2023-07-29T08:40:45;1.40;;;1.35;;
7813;SDS011;3952;48.364;16.022;2023-07-29T08:43:16;1.48;;;1.48;;
7813;SDS011;3952;48.364;16.022;2023-07-29T08:45:46;1.35;;;1.35;;
7813;SDS011;3952;48.364;16.022;2023-07-29T08:48:15;1.20;;;1.20;;
7813;SDS011;3952;48.364;16.022;2023-07-29T08:50:50;2.45;;;1.35;;
7813;SDS011;3952;48.364;16.022;2023-07-29T08:53:19;3.92;;;1.35;;
7813;SDS011;3952;48.364;16.022;2023-07-29T08:55:47;1.13;;;1.13;;
7813;SDS011;3952;48.364;16.022;2023-07-29T08:58:15;1.00;;;1.00;;
7813;SDS011;3952;48.364;16.022;2023-07-29T09:00:42;1.10;;;1.10;;
7813;SDS011;3952;48.364;16.022;2023-07-29T09:03:10;1.10;;;1.10;;
7813;SDS011;3952;48.364;16.022;2023-07-29T09:05:39;1.38;;;1.38;;
7813;SDS011;3952;48.364;16.022;2023-07-29T09:08:06;1.17;;;1.17;;
7813;SDS011;3952;48.364;16.022;2023-07-29T09:10:35;1.20;;;1.20;;
7813;SDS011;3952;48.364;16.022;2023-07-29T09:13:02;1.13;;;1.13;;
7813;SDS011;3952;48.364;16.022;2023-07-29T09:15:31;1.00;;;1.00;;
7813;SDS011;3952;48.364;16.022;2023-07-29T09:18:00;1.20;;;1.20;;
7813;SDS011;3952;48.364;16.022;2023-07-29T09:20:35;1.30;;;1.13;;
7813;SDS011;3952;48.364;16.022;2023-07-29T09:23:06;1.10;;;1.10;;
7813;SDS011;3952;48.364;16.022;2023-07-29T09:25:35;1.10;;;1.10;;
7813;SDS011;3952;48.364;16.022;2023-07-29T09:28:07;1.10;;;1.10;;
7813;SDS011;3952;48.364;16.022;2023-07-29T09:30:36;1.92;;;1.00;;
7813;SDS011;3952;48.364;16.022;2023-07-29T09:33:03;1.13;;;1.13;;
7813;SDS011;3952;48.364;16.022;2023-07-29T09:35:32;1.30;;;1.20;;
7813;SDS011;3952;48.364;16.022;2023-07-29T09:38:00;0.88;;;0.88;;
7813;SDS011;3952;48.364;16.022;2023-07-29T09:40:33;1.60;;;1.15;;
7813;SDS011;3952;48.364;16.022;2023-07-29T09:43:02;1.25;;;1.08;;
7813;SDS011;3952;48.364;16.022;2023-07-29T09:45:30;0.98;;;0.98;;
7813;SDS011;3952;48.364;16.022;2023-07-29T09:48:00;1.13;;;1.13;;
7813;SDS011;3952;48.364;16.022;2023-07-29T09:50:28;1.35;;;1.25;;
7813;SDS011;3952;48.364;16.022;2023-07-29T09:52:55;1.17;;;1.17;;
7813;SDS011;3952;48.364;16.022;2023-07-29T09:55:24;1.00;;;1.00;;
7813;SDS011;3952;48.364;16.022;2023-07-29T09:57:54;1.25;;;1.20;;
7813;SDS011;3952;48.364;16.022;2023-07-29T10:00:26;0.93;;;0.90;;
7813;SDS011;3952;48.364;16.022;2023-07-29T10:02:54;1.13;;;1.13;;
7813;SDS011;3952;48.364;16.022;2023-07-29T10:05:22;1.20;;;1.20;;
7813;SDS011;3952;48.364;16.022;2023-07-29T10:07:49;1.17;;;1.13;;
7813;SDS011;3952;48.364;16.022;2023-07-29T10:10:17;1.05;;;1.05;;
7813;SDS011;3952;48.364;16.022;2023-07-29T10:12:46;0.75;;;0.75;;
7813;SDS011;3952;48.364;16.022;2023-07-29T10:15:15;0.90;;;0.90;;
7813;SDS011;3952;48.364;16.022;2023-07-29T10:17:42;1.25;;;1.05;;
7813;SDS011;3952;48.364;16.022;2023-07-29T10:20:09;0.80;;;0.80;;
7813;SDS011;3952;48.364;16.022;2023-07-29T10:22:37;1.00;;;1.00;;
7813;SDS011;3952;48.364;16.022;2023-07-29T10:25:07;0.90;;;0.90;;
7813;SDS011;3952;48.364;16.022;2023-07-29T10:27:39;1.30;;;1.00;;
7813;SDS011;3952;48.364;16.022;2023-07-29T10:30:10;0.93;;;0.93;;
7813;SDS011;3952;48.364;16.022;2023-07-29T10:32:40;0.80;;;0.80;;
7813;SDS011;3952;48.364;16.022;2023-07-29T10:35:10;1.08;;;1.08;;
7813;SDS011;3952;48.364;16.022;2023-07-29T10:37:37;1.17;;;0.85;;
7813;SDS011;3952;48.364;16.022;2023-07-29T10:40:07;1.02;;;1.00;;
7813;SDS011;3952;48.364;16.022;2023-07-29T10:42:36;6.03;;;1.45;;
7813;SDS011;3952;48.364;16.022;2023-07-29T10:45:19;1.15;;;1.13;;
7813;SDS011;3952;48.364;16.022;2023-07-29T10:47:49;1.42;;;1.20;;
7813;SDS011;3952;48.364;16.022;2023-07-29T10:50:20;1.13;;;1.05;;
7813;SDS011;3952;48.364;16.022;2023-07-29T10:52:49;3.58;;;1.15;;
7813;SDS011;3952;48.364;16.022;2023-07-29T10:55:27;0.80;;;0.80;;
7813;SDS011;3952;48.364;16.022;2023-07-29T10:58:10;1.00;;;0.90;;
7813;SDS011;3952;48.364;16.022;2023-07-29T11:00:41;1.10;;;1.10;;
7813;SDS011;3952;48.364;16.022;2023-07-29T11:03:11;1.00;;;1.00;;
7813;SDS011;3952;48.364;16.022;2023-07-29T11:05:48;1.15;;;1.05;;
7813;SDS011;3952;48.364;16.022;2023-07-29T11:08:20;0.98;;;0.98;;
7813;SDS011;3952;48.364;16.022;2023-07-29T11:10:59;0.85;;;0.85;;
7813;SDS011;3952;48.364;16.022;2023-07-29T11:13:29;0.70;;;0.70;;
7813;SDS011;3952;48.364;16.022;2023-07-29T11:15:57;1.08;;;1.08;;
7813;SDS011;3952;48.364;16.022;2023-07-29T11:18:28;1.38;;;1.23;;
7813;SDS011;3952;48.364;16.022;2023-07-29T11:20:56;1.00;;;1.00;;
7813;SDS011;3952;48.364;16.022;2023-07-29T11:23:27;1.02;;;1.02;;
7813;SDS011;3952;48.364;16.022;2023-07-29T11:25:58;4.28;;;1.35;;
7813;SDS011;3952;48.364;16.022;2023-07-29T11:28:26;2.30;;;1.15;;
7813;SDS011;3952;48.364;16.022;2023-07-29T11:30:54;1.20;;;1.20;;
7813;SDS011;3952;48.364;16.022;2023-07-29T11:33:23;1.30;;;1.20;;
7813;SDS011;3952;48.364;16.022;2023-07-29T11:35:52;1.38;;;1.20;;
7813;SDS011;3952;48.364;16.022;2023-07-29T11:38:20;1.75;;;1.20;;
7813;SDS011;3952;48.364;16.022;2023-07-29T11:40:55;2.28;;;1.20;;
7813;SDS011;3952;48.364;16.022;2023-07-29T11:43:26;1.30;;;1.25;;
7813;SDS011;3952;48.364;16.022;2023-07-29T11:45:53;1.17;;;1.10;;
7813;SDS011;3952;48.364;16.022;2023-07-29T11:48:27;1.10;;;1.10;;
7813;SDS011;3952;48.364;16.022;2023-07-29T11:50:56;1.48;;;1.38;;
7813;SDS011;3952;48.364;16.022;2023-07-29T11:53:25;1.40;;;1.30;;
7813;SDS011;3952;48.364;16.022;2023-07-29T11:55:54;1.25;;;1.20;;
7813;SDS011;3952;48.364;16.022;2023-07-29T11:58:22;1.35;;;1.35;;
7813;SDS011;3952;48.364;16.022;2023-07-29T12:00:49;1.20;;;1.20;;
7813;SDS011;3952;48.364;16.022;2023-07-29T12:03:18;1.02;;;1.02;;
7813;SDS011;3952;48.364;16.022;2023-07-29T12:05:45;1.17;;;1.17;;
7813;SDS011;3952;48.364;16.022;2023-07-29T12:08:14;2.40;;;1.42;;
7813;SDS011;3952;48.364;16.022;2023-07-29T12:10:42;2.22;;;1.48;;
7813;SDS011;3952;48.364;16.022;2023-07-29T12:13:09;3.05;;;1.33;;
7813;SDS011;3952;48.364;16.022;2023-07-29T12:15:38;1.88;;;1.40;;
7813;SDS011;3952;48.364;16.022;2023-07-29T12:18:06;1.42;;;1.42;;
7813;SDS011;3952;48.364;16.022;2023-07-29T12:20:33;3.00;;;1.25;;
7813;SDS011;3952;48.364;16.022;2023-07-29T12:23:01;0.88;;;0.88;;
7813;SDS011;3952;48.364;16.022;2023-07-29T12:25:32;1.02;;;1.02;;
7813;SDS011;3952;48.364;16.022;2023-07-29T12:28:03;1.00;;;1.00;;
7813;SDS011;3952;48.364;16.022;2023-07-29T12:30:31;1.08;;;1.02;;
7813;SDS011;3952;48.364;16.022;2023-07-29T12:32:59;1.30;;;1.20;;
7813;SDS011;3952;48.364;16.022;2023-07-29T12:35:33;1.20;;;1.20;;
7813;SDS011;3952;48.364;16.022;2023-07-29T12:38:04;1.15;;;1.15;;
7813;SDS011;3952;48.364;16.022;2023-07-29T12:40:37;1.02;;;1.02;;
7813;SDS011;3952;48.364;16.022;2023-07-29T12:43:05;1.58;;;1.17;;
7813;SDS011;3952;48.364;16.022;2023-07-29T12:45:35;0.95;;;0.95;;
7813;SDS011;3952;48.364;16.022;2023-07-29T12:48:05;1.40;;;1.25;;
7813;SDS011;3952;48.364;16.022;2023-07-29T12:50:32;1.00;;;1.00;;
7813;SDS011;3952;48.364;16.022;2023-07-29T12:52:59;1.02;;;1.02;;
7813;SDS011;3952;48.364;16.022;2023-07-29T12:55:26;0.93;;;0.93;;
7813;SDS011;3952;48.364;16.022;2023-07-29T12:57:55;0.93;;;0.93;;
7813;SDS011;3952;48.364;16.022;2023-07-29T13:00:23;1.40;;;1.00;;
7813;SDS011;3952;48.364;16.022;2023-07-29T13:02:50;1.40;;;1.23;;
7813;SDS011;3952;48.364;16.022;2023-07-29T13:05:18;1.13;;;1.00;;
7813;SDS011;3952;48.364;16.022;2023-07-29T13:07:45;1.55;;;1.15;;
7813;SDS011;3952;48.364;16.022;2023-07-29T13:10:12;3.80;;;1.25;;
7813;SDS011;3952;48.364;16.022;2023-07-29T13:12:40;0.90;;;0.90;;
7813;SDS011;3952;48.364;16.022;2023-07-29T13:15:09;1.25;;;1.00;;
7813;SDS011;3952;48.364;16.022;2023-07-29T13:17:36;2.05;;;1.60;;
7813;SDS011;3952;48.364;16.022;2023-07-29T13:20:05;1.00;;;1.00;;
7813;SDS011;3952;48.364;16.022;2023-07-29T13:22:33;1.52;;;1.13;;
7813;SDS011;3952;48.364;16.022;2023-07-29T13:25:01;3.60;;;1.17;;
7813;SDS011;3952;48.364;16.022;2023-07-29T13:27:28;1.30;;;1.20;;
7813;SDS011;3952;48.364;16.022;2023-07-29T13:29:55;1.00;;;1.00;;
7813;SDS011;3952;48.364;16.022;2023-07-29T13:32:23;2.13;;;1.08;;
7813;SDS011;3952;48.364;16.022;2023-07-29T13:34:51;1.67;;;1.20;;
7813;SDS011;3952;48.364;16.022;2023-07-29T13:37:18;1.02;;;1.02;;
7813;SDS011;3952;48.364;16.022;2023-07-29T13:39:45;1.52;;;1.20;;
7813;SDS011;3952;48.364;16.022;2023-07-29T13:42:12;1.10;;;1.10;;
7813;SDS011;3952;48.364;16.022;2023-07-29T13:44:39;1.13;;;1.13;;
7813;SDS011;3952;48.364;16.022;2023-07-29T13:47:06;1.23;;;1.23;;
7813;SDS011;3952;48.364;16.022;2023-07-29T13:49:35;1.10;;;1.10;;
7813;SDS011;3952;48.364;16.022;2023-07-29T13:52:02;1.10;;;1.10;;
7813;SDS011;3952;48.364;16.022;2023-07-29T13:54:30;1.40;;;1.40;;
7813;SDS011;3952;48.364;16.022;2023-07-29T13:56:57;1.38;;;1.27;;
7813;SDS011;3952;48.364;16.022;2023-07-29T13:59:24;1.10;;;1.10;;
7813;SDS011;3952;48.364;16.022;2023-07-29T14:01:51;1.35;;;1.30;;
7813;SDS011;3952;48.364;16.022;2023-07-29T14:04:19;1.27;;;1.27;;
7813;SDS011;3952;48.364;16.022;2023-07-29T14:06:47;1.08;;;1.08;;
7813;SDS011;3952;48.364;16.022;2023-07-29T14:09:14;1.17;;;1.17;;
7813;SDS011;3952;48.364;16.022;2023-07-29T14:11:41;1.50;;;1.38;;
7813;SDS011;3952;48.364;16.022;2023-07-29T14:14:09;1.50;;;1.50;;
7813;SDS011;3952;48.364;16.022;2023-07-29T14:16:36;1.40;;;1.40;;
7813;SDS011;3952;48.364;16.022;2023-07-29T14:19:04;1.30;;;1.30;;
7813;SDS011;3952;48.364;16.022;2023-07-29T14:21:31;1.30;;;1.30;;
7813;SDS011;3952;48.364;16.022;2023-07-29T14:24:00;1.15;;;1.15;;
7813;SDS011;3952;48.364;16.022;2023-07-29T14:26:27;1.30;;;1.30;;
7813;SDS011;3952;48.364;16.022;2023-07-29T14:28:54;1.38;;;1.38;;
7813;SDS011;3952;48.364;16.022;2023-07-29T14:31:21;1.20;;;1.20;;
7813;SDS011;3952;48.364;16.022;2023-07-29T14:33:48;1.15;;;1.15;;
7813;SDS011;3952;48.364;16.022;2023-07-29T14:36:15;1.40;;;1.40;;
7813;SDS011;3952;48.364;16.022;2023-07-29T14:38:43;2.10;;;1.70;;
7813;SDS011;3952;48.364;16.022;2023-07-29T14:41:11;3.92;;;1.67;;
7813;SDS011;3952;48.364;16.022;2023-07-29T14:43:39;1.33;;;1.33;;
7813;SDS011;3952;48.364;16.022;2023-07-29T14:46:06;1.60;;;1.50;;
7813;SDS011;3952;48.364;16.022;2023-07-29T14:48:33;1.60;;;1.60;;
7813;SDS011;3952;48.364;16.022;2023-07-29T14:51:00;1.40;;;1.40;;
7813;SDS011;3952;48.364;16.022;2023-07-29T14:53:28;1.15;;;1.15;;
7813;SDS011;3952;48.364;16.022;2023-07-29T14:55:55;1.70;;;1.67;;
7813;SDS011;3952;48.364;16.022;2023-07-29T14:58:23;1.60;;;1.60;;
7813;SDS011;3952;48.364;16.022;2023-07-29T15:00:51;2.47;;;1.50;;
7813;SDS011;3952;48.364;16.022;2023-07-29T15:03:18;3.03;;;1.75;;
7813;SDS011;3952;48.364;16.022;2023-07-29T15:05:45;1.50;;;1.40;;
7813;SDS011;3952;48.364;16.022;2023-07-29T15:08:13;1.23;;;1.23;;